Time;durP1;ratioP1;P1;durP2;ratioP2;P2;SDS_P1;SDS_P2;PMS_P1;PMS_P2;Temp;Humidity;BMP_temperature;BMP_pressure;BME280_temperature;BME280_humidity;BME280_pressure;Samples;Min_cycle;Max_cycle;Signal;HPM_P1;HPM_P2
2021/09/19 00:00:58;;;;;;;11.10;4.59;;;;;;;18.28;52.82;100265.36;459678;113;930491;-83
2021/09/19 00:02:02;;;;;;;8.09;4.53;;;;;;;18.28;52.85;100276.39;460431;113;922815;-82
2021/09/19 00:03:06;;;;;;;6.26;4.20;;;;;;;18.28;52.85;100261.77;460238;114;930449;-82
2021/09/19 00:04:10;;;;;;;10.91;4.27;;;;;;;18.28;52.84;100264.52;459618;114;922491;-82
2021/09/19 00:05:14;;;;;;;5.36;4.14;;;;;;;18.28;52.86;100270.05;462972;114;922480;-82
2021/09/19 00:06:19;;;;;;;8.27;3.99;;;;;;;18.28;52.79;100267.28;459862;114;922618;-83
2021/09/19 00:07:22;;;;;;;5.59;4.21;;;;;;;18.27;52.77;100265.62;461147;114;922515;-83
2021/09/19 00:08:27;;;;;;;9.54;4.30;;;;;;;18.28;52.94;100264.52;462170;112;930558;-83
2021/09/19 00:09:31;;;;;;;5.02;3.71;;;;;;;18.30;53.01;100267.85;458624;114;922514;-83
2021/09/19 00:10:35;;;;;;;6.37;3.76;;;;;;;18.29;53.09;100261.50;458227;113;922513;-83
2021/09/19 00:11:39;;;;;;;6.47;3.96;;;;;;;18.29;53.14;100261.50;457622;113;930552;-82
2021/09/19 00:12:44;;;;;;;12.10;4.30;;;;;;;18.29;53.14;100260.67;460105;113;930453;-83
2021/09/19 00:13:48;;;;;;;6.62;3.96;;;;;;;18.30;53.25;100259.57;462655;114;930474;-83
2021/09/19 00:14:52;;;;;;;6.59;4.09;;;;;;;18.30;53.23;100254.85;461484;113;922353;-83
2021/09/19 00:15:55;;;;;;;6.99;3.77;;;;;;;18.30;53.28;100260.38;460490;114;922477;-83
2021/09/19 00:16:59;;;;;;;5.44;3.90;;;;;;;18.31;53.32;100252.92;462660;114;930463;-83
2021/09/19 00:18:03;;;;;;;10.90;3.65;;;;;;;18.31;53.25;100255.69;460368;114;922572;-83
2021/09/19 00:19:07;;;;;;;7.91;4.11;;;;;;;18.30;53.23;100252.09;461300;114;930579;-83
2021/09/19 00:20:12;;;;;;;6.66;4.69;;;;;;;18.32;53.61;100254.59;460832;114;922542;-83
2021/09/19 00:21:16;;;;;;;10.36;4.11;;;;;;;18.32;53.61;100254.59;457632;113;922462;-83
2021/09/19 00:22:19;;;;;;;11.52;3.79;;;;;;;18.31;53.41;100255.69;461389;114;930409;-83
2021/09/19 00:23:23;;;;;;;9.83;3.59;;;;;;;18.30;53.46;100252.09;463565;113;930478;-83
2021/09/19 00:24:26;;;;;;;10.04;4.24;;;;;;;18.30;53.43;100252.09;458638;113;930375;-84
2021/09/19 00:25:30;;;;;;;7.79;3.91;;;;;;;18.29;53.46;100249.63;460660;114;922475;-83
2021/09/19 00:26:34;;;;;;;6.62;3.86;;;;;;;18.28;53.52;100245.20;460838;114;930441;-83
2021/09/19 00:27:39;;;;;;;7.91;3.95;;;;;;;18.28;53.58;100245.20;458661;112;923092;-83
2021/09/19 00:28:43;;;;;;;8.58;3.29;;;;;;;18.29;53.55;100249.63;458722;113;922869;-83
2021/09/19 00:29:46;;;;;;;10.84;3.72;;;;;;;18.30;53.51;100251.29;459392;114;922988;-83
2021/09/19 00:30:50;;;;;;;3.44;3.06;;;;;;;18.30;53.52;100251.29;459525;114;922603;-83
2021/09/19 00:31:54;;;;;;;10.44;3.99;;;;;;;18.30;53.53;100246.58;460274;114;923136;-82
2021/09/19 00:32:59;;;;;;;6.58;3.56;;;;;;;18.32;53.55;100260.11;461426;114;930931;-83
2021/09/19 00:34:02;;;;;;;5.13;3.29;;;;;;;18.32;53.57;100260.11;463921;112;922471;-83
2021/09/19 00:35:07;;;;;;;5.97;3.58;;;;;;;18.31;53.55;100256.52;463799;113;922854;-83
2021/09/19 00:36:12;;;;;;;6.69;3.58;;;;;;;18.30;53.57;100252.09;460301;114;922423;-83
2021/09/19 00:37:15;;;;;;;7.56;3.32;;;;;;;18.31;53.60;100250.16;462013;112;923015;-82
2021/09/19 00:38:18;;;;;;;8.86;3.42;;;;;;;18.32;53.56;100254.59;461962;114;922963;-83
2021/09/19 00:39:22;;;;;;;15.36;4.02;;;;;;;18.32;53.50;100243.55;461301;111;922394;-83
2021/09/19 00:40:26;;;;;;;11.05;4.12;;;;;;;18.32;53.63;100247.14;459670;113;922156;-83
2021/09/19 00:41:30;;;;;;;8.09;4.01;;;;;;;18.34;53.67;100252.39;454505;114;922551;-83
2021/09/19 00:42:33;;;;;;;5.49;3.55;;;;;;;18.33;53.68;100247.97;452279;114;922614;-83
2021/09/19 00:43:37;;;;;;;6.66;3.33;;;;;;;18.32;53.68;100252.66;460732;114;922594;-84
2021/09/19 00:44:40;;;;;;;4.09;3.06;;;;;;;18.31;53.74;100251.00;461202;114;930569;-83
2021/09/19 00:45:44;;;;;;;11.67;3.71;;;;;;;18.31;53.77;100252.92;461062;112;923066;-83
2021/09/19 00:46:49;;;;;;;9.01;3.82;;;;;;;18.31;53.76;100241.88;461336;114;923004;-83
2021/09/19 00:47:53;;;;;;;5.95;3.68;;;;;;;18.32;53.66;100244.37;459223;114;923301;-84
2021/09/19 00:48:56;;;;;;;6.79;3.83;;;;;;;18.33;53.67;100245.21;461605;114;930359;-83
2021/09/19 00:50:00;;;;;;;5.71;3.66;;;;;;;18.34;53.75;100242.19;460292;114;922506;-83
2021/09/19 00:51:04;;;;;;;7.89;4.42;;;;;;;18.34;53.76;100239.42;459610;114;923144;-84
2021/09/19 00:52:07;;;;;;;4.18;3.36;;;;;;;18.34;53.76;100244.95;461226;114;930591;-84
2021/09/19 00:53:12;;;;;;;5.34;3.10;;;;;;;18.34;53.76;100244.11;459646;114;922717;-84
2021/09/19 00:54:17;;;;;;;9.31;3.56;;;;;;;18.34;53.81;100241.35;457966;114;923076;-83
2021/09/19 00:55:21;;;;;;;10.16;4.00;;;;;;;18.33;53.79;100243.28;461567;114;922986;-83
2021/09/19 00:56:28;;;;;;;5.74;3.67;;;;;;;18.34;53.87;100253.23;460369;114;923010;-83
2021/09/19 00:57:34;;;;;;;6.21;4.00;;;;;;;18.34;53.91;100250.47;461311;114;922568;-84
2021/09/19 00:58:40;;;;;;;9.72;3.76;;;;;;;18.33;53.93;100257.08;458213;114;922549;-84
2021/09/19 00:59:49;;;;;;;9.77;4.20;;;;;;;18.34;54.00;100255.16;459800;114;922465;-84
2021/09/19 01:00:55;;;;;;;10.57;3.51;;;;;;;18.34;53.97;100257.91;461000;112;922577;-84
2021/09/19 01:02:00;;;;;;;5.68;3.61;;;;;;;18.34;53.99;100258.74;464024;114;922829;-84
2021/09/19 01:03:05;;;;;;;7.06;3.69;;;;;;;18.34;54.01;100253.23;462107;111;922875;-83
2021/09/19 01:04:09;;;;;;;8.42;3.27;;;;;;;18.37;54.14;100256.52;462063;111;922723;-84
2021/09/19 01:05:16;;;;;;;9.79;3.83;;;;;;;18.38;54.15;100253.50;459350;113;922676;-84
2021/09/19 01:06:21;;;;;;;11.99;3.78;;;;;;;18.38;54.09;100247.97;461629;114;923024;-83
2021/09/19 01:07:24;;;;;;;5.88;3.58;;;;;;;18.39;54.01;100251.56;460670;111;922493;-84
2021/09/19 01:08:28;;;;;;;9.93;3.81;;;;;;;18.40;53.99;100245.78;458949;113;922442;-83
2021/09/19 01:09:32;;;;;;;6.62;4.08;;;;;;;18.42;53.95;100249.08;461086;111;930718;-84
2021/09/19 01:10:36;;;;;;;5.92;3.48;;;;;;;18.43;53.91;100242.45;458897;111;922938;-84
2021/09/19 01:11:40;;;;;;;6.13;3.36;;;;;;;18.44;53.93;100249.64;462535;114;922595;-84
2021/09/19 01:12:44;;;;;;;6.83;3.18;;;;;;;18.45;53.94;100237.50;463897;113;930528;-84
2021/09/19 01:13:49;;;;;;;9.09;3.74;;;;;;;18.45;53.94;100239.43;461127;114;922982;-84
2021/09/19 01:14:53;;;;;;;6.59;3.58;;;;;;;18.46;54.00;100241.09;462045;114;922645;-83
2021/09/19 01:15:57;;;;;;;11.15;3.82;;;;;;;18.45;54.01;100233.91;459310;113;922776;-84
2021/09/19 01:17:01;;;;;;;9.03;3.79;;;;;;;18.45;54.09;100236.67;461305;114;922584;-84
2021/09/19 01:18:06;;;;;;;7.47;3.37;;;;;;;18.45;54.08;100239.43;459490;113;922625;-83
2021/09/19 01:19:13;;;;;;;6.10;3.56;;;;;;;18.43;54.12;100239.70;454464;114;930648;-83
2021/09/19 01:20:19;;;;;;;7.45;3.72;;;;;;;18.41;54.17;100241.92;453454;114;923133;-84
2021/09/19 01:21:24;;;;;;;5.49;3.57;;;;;;;18.40;54.26;100239.42;461444;113;922608;-85
2021/09/19 01:22:33;;;;;;;6.56;3.27;;;;;;;18.39;54.33;100237.77;459990;113;923224;-84
2021/09/19 01:23:38;;;;;;;5.97;3.61;;;;;;;18.39;54.41;100248.80;458829;114;922545;-83
2021/09/19 01:24:42;;;;;;;6.62;3.42;;;;;;;18.38;54.40;100239.69;460979;113;922441;-83
2021/09/19 01:25:48;;;;;;;8.59;3.32;;;;;;;18.38;54.46;100244.38;461203;113;922428;-83
2021/09/19 01:26:53;;;;;;;6.53;3.49;;;;;;;18.38;54.43;100241.63;464056;114;922535;-83
2021/09/19 01:27:57;;;;;;;7.78;3.29;;;;;;;18.36;54.41;100239.12;462411;114;922569;-83
2021/09/19 01:29:01;;;;;;;8.06;3.94;;;;;;;18.33;54.46;100240.52;455330;115;931030;-82
2021/09/19 01:30:07;;;;;;;6.02;3.43;;;;;;;18.33;54.54;100243.28;440121;118;923057;-82
2021/09/19 01:31:11;;;;;;;12.44;3.82;;;;;;;18.33;54.54;100250.73;455212;114;922794;-83
2021/09/19 01:32:21;;;;;;;7.98;3.44;;;;;;;18.32;54.56;100243.55;461253;114;923476;-84
2021/09/19 01:33:20;;;;;;;6.22;3.68;;;;;;;18.33;54.61;100245.21;460785;113;930641;-84
2021/09/19 01:34:25;;;;;;;5.27;3.50;;;;;;;18.32;54.61;100244.37;464082;113;922824;-83
2021/09/19 01:35:30;;;;;;;10.55;3.44;;;;;;;18.32;54.63;100249.90;462215;113;922442;-83
2021/09/19 01:36:36;;;;;;;6.94;3.18;;;;;;;18.32;54.64;100249.90;461880;114;922528;-84
2021/09/19 01:37:41;;;;;;;7.19;3.16;;;;;;;18.33;54.65;100245.21;461755;114;922554;-83
2021/09/19 01:38:45;;;;;;;6.09;3.48;;;;;;;18.35;54.66;100245.77;460127;114;923024;-83
2021/09/19 01:39:48;;;;;;;6.00;3.76;;;;;;;18.36;54.67;100247.41;463268;113;922547;-84
2021/09/19 01:40:52;;;;;;;9.43;3.36;;;;;;;18.38;54.60;100241.63;461358;113;922479;-84
2021/09/19 01:41:56;;;;;;;5.44;3.52;;;;;;;18.39;54.57;100244.12;460887;113;922720;-84
2021/09/19 01:43:00;;;;;;;5.19;3.31;;;;;;;18.39;54.62;100241.36;461948;114;922650;-83
2021/09/19 01:44:06;;;;;;;7.70;3.85;;;;;;;18.38;54.69;100247.14;463030;114;930361;-83
2021/09/19 01:45:11;;;;;;;6.72;3.68;;;;;;;18.37;54.75;100246.31;461809;112;922512;-83
2021/09/19 01:46:15;;;;;;;6.68;3.71;;;;;;;18.38;54.83;100245.22;461980;113;922415;-83
2021/09/19 01:47:19;;;;;;;7.72;3.48;;;;;;;18.39;54.90;100255.16;460129;113;922520;-85
2021/09/19 01:48:22;;;;;;;9.07;4.43;;;;;;;18.39;54.97;100252.40;463012;114;922679;-84
2021/09/19 01:49:26;;;;;;;7.54;3.62;;;;;;;18.40;55.15;100253.23;463697;114;923016;-84
2021/09/19 01:50:31;;;;;;;9.94;4.39;;;;;;;18.40;55.37;100247.71;461515;114;923062;-83
2021/09/19 01:51:36;;;;;;;7.34;3.51;;;;;;;18.40;55.49;100256.82;460533;114;922538;-82
2021/09/19 01:52:39;;;;;;;8.16;3.77;;;;;;;18.40;55.61;100247.71;461400;114;922502;-82
2021/09/19 01:53:43;;;;;;;7.05;3.53;;;;;;;18.40;55.71;100248.54;461946;114;922814;-83
2021/09/19 01:54:47;;;;;;;8.75;3.92;;;;;;;18.41;55.71;100249.38;461239;113;922938;-82
2021/09/19 01:55:51;;;;;;;5.18;3.41;;;;;;;18.40;55.71;100251.30;462370;114;922910;-83
2021/09/19 01:56:54;;;;;;;9.28;3.88;;;;;;;18.42;55.82;100254.59;460663;113;922598;-83
2021/09/19 01:57:58;;;;;;;7.59;3.34;;;;;;;18.41;55.93;100249.38;459465;114;922477;-83
2021/09/19 01:59:02;;;;;;;6.67;3.69;;;;;;;18.41;55.97;100246.61;462046;114;922439;-83
2021/09/19 02:00:09;;;;;;;5.40;3.41;;;;;;;18.40;55.97;100256.82;463497;112;922921;-83
2021/09/19 02:01:13;;;;;;;6.87;3.43;;;;;;;18.39;56.05;100255.16;462532;113;923616;-83
2021/09/19 02:02:19;;;;;;;10.56;4.36;;;;;;;18.39;56.10;100246.05;461445;112;923170;-83
2021/09/19 02:03:23;;;;;;;6.73;3.93;;;;;;;18.40;56.17;100251.30;462276;113;922482;-84
2021/09/19 02:04:26;;;;;;;9.34;4.00;;;;;;;18.41;56.34;100252.96;463035;113;922470;-83
2021/09/19 02:05:30;;;;;;;9.81;4.28;;;;;;;18.42;56.40;100256.52;461172;114;930535;-83
2021/09/19 02:06:34;;;;;;;9.26;4.40;;;;;;;18.42;56.46;100249.08;461099;112;922376;-84
2021/09/19 02:07:39;;;;;;;5.65;4.01;;;;;;;18.41;56.47;100250.20;459557;114;922753;-85
2021/09/19 02:08:42;;;;;;;8.53;4.42;;;;;;;18.40;56.35;100247.71;463084;114;930578;-82
2021/09/19 02:09:46;;;;;;;8.16;3.59;;;;;;;18.39;56.41;100252.40;458204;114;931002;-83
2021/09/19 02:10:50;;;;;;;7.55;3.59;;;;;;;18.39;56.41;100248.80;462077;114;930527;-83
2021/09/19 02:11:54;;;;;;;5.39;3.38;;;;;;;18.38;56.41;100249.91;463305;114;922880;-84
2021/09/19 02:12:57;;;;;;;13.41;3.80;;;;;;;18.37;56.39;100246.31;461568;114;930571;-83
2021/09/19 02:14:01;;;;;;;5.87;3.75;;;;;;;18.37;56.43;100243.55;462121;114;930465;-80
2021/09/19 02:15:06;;;;;;;6.39;4.33;;;;;;;18.37;56.40;100251.00;459522;114;922925;-82
2021/09/19 02:16:11;;;;;;;6.78;3.86;;;;;;;18.37;56.42;100248.23;461907;114;922119;-81
2021/09/19 02:17:15;;;;;;;7.45;4.17;;;;;;;18.38;56.35;100259.02;461623;113;922176;-82
2021/09/19 02:18:19;;;;;;;13.08;3.39;;;;;;;18.39;56.27;100254.33;462330;113;922259;-83
2021/09/19 02:19:22;;;;;;;10.61;3.73;;;;;;;18.39;56.19;100248.80;461369;112;922423;-83
2021/09/19 02:20:27;;;;;;;7.54;4.16;;;;;;;18.39;56.18;100257.92;459712;114;923243;-84
2021/09/19 02:21:31;;;;;;;12.55;3.30;;;;;;;18.41;56.06;100249.38;462216;113;922948;-84
2021/09/19 02:22:35;;;;;;;6.13;3.56;;;;;;;18.40;56.02;100247.71;444173;118;922474;-84
2021/09/19 02:23:38;;;;;;;8.07;3.83;;;;;;;18.41;56.08;100258.48;451608;116;931069;-84
2021/09/19 02:24:42;;;;;;;8.44;4.75;;;;;;;18.42;56.03;100249.08;445916;118;923146;-83
2021/09/19 02:25:46;;;;;;;6.84;5.59;;;;;;;18.43;55.98;100250.73;449371;116;930331;-84
2021/09/19 02:26:50;;;;;;;8.34;3.75;;;;;;;18.44;56.01;100246.87;446331;117;930648;-84
2021/09/19 02:27:54;;;;;;;9.61;4.48;;;;;;;18.46;55.90;100249.38;453691;116;930700;-84
2021/09/19 02:28:57;;;;;;;7.97;4.13;;;;;;;18.47;55.88;100248.28;451576;116;930555;-83
2021/09/19 02:30:02;;;;;;;11.57;3.86;;;;;;;18.46;56.13;100246.61;444829;118;922543;-83
2021/09/19 02:31:06;;;;;;;5.87;3.69;;;;;;;18.44;56.17;100240.53;450503;116;930577;-84
2021/09/19 02:32:10;;;;;;;7.86;4.35;;;;;;;18.43;56.32;100252.66;443278;118;923143;-83
2021/09/19 02:33:13;;;;;;;7.74;3.98;;;;;;;18.43;56.23;100245.22;453297;116;930520;-82
2021/09/19 02:34:17;;;;;;;10.83;3.59;;;;;;;18.44;56.13;100244.12;447550;118;922670;-82
2021/09/19 02:35:20;;;;;;;7.81;3.52;;;;;;;18.44;56.08;100252.41;451783;116;930172;-82
2021/09/19 02:36:25;;;;;;;8.65;4.25;;;;;;;18.43;56.09;100245.22;443300;118;930499;-83
2021/09/19 02:37:28;;;;;;;9.12;4.75;;;;;;;18.43;56.29;100247.98;444851;118;922558;-84
2021/09/19 02:38:32;;;;;;;7.16;3.71;;;;;;;18.43;56.43;100244.38;453327;116;922525;-83
2021/09/19 02:39:36;;;;;;;9.69;4.03;;;;;;;18.42;56.49;100251.83;446977;118;930463;-83
2021/09/19 02:40:41;;;;;;;7.87;3.59;;;;;;;18.42;56.55;100243.55;453438;116;922860;-83
2021/09/19 02:41:45;;;;;;;9.44;4.08;;;;;;;18.41;56.71;100246.61;451652;116;922543;-83
2021/09/19 02:42:50;;;;;;;5.43;4.16;;;;;;;18.41;56.85;100233.64;452030;115;923318;-83
2021/09/19 02:43:54;;;;;;;8.33;4.97;;;;;;;18.41;56.96;100247.45;453005;116;922665;-84
2021/09/19 02:44:57;;;;;;;10.38;4.07;;;;;;;18.42;57.12;100238.03;450097;116;922594;-83
2021/09/19 02:46:01;;;;;;;11.35;4.37;;;;;;;18.42;57.25;100238.03;446177;118;922547;-84
2021/09/19 02:47:05;;;;;;;7.57;4.36;;;;;;;18.41;57.51;100236.41;453086;116;922435;-84
2021/09/19 02:48:08;;;;;;;7.44;4.42;;;;;;;18.40;57.72;100233.91;444913;118;923841;-84
2021/09/19 02:49:12;;;;;;;9.88;5.14;;;;;;;18.39;57.91;100235.83;450375;115;926412;-83
2021/09/19 02:50:19;;;;;;;10.12;4.92;;;;;;;18.40;58.12;100239.42;443927;118;930561;-84
2021/09/19 02:51:23;;;;;;;11.57;4.26;;;;;;;18.40;58.39;100233.91;445314;118;923003;-83
2021/09/19 02:52:27;;;;;;;9.08;4.76;;;;;;;18.39;58.72;100237.77;452598;116;923418;-84
2021/09/19 02:53:30;;;;;;;11.43;4.13;;;;;;;18.37;59.07;100234.44;447178;118;930501;-83
2021/09/19 02:54:34;;;;;;;12.22;5.00;;;;;;;18.34;59.36;100227.55;452994;116;922742;-84
2021/09/19 02:55:37;;;;;;;7.65;4.41;;;;;;;18.33;59.69;100223.13;446502;118;923459;-83
2021/09/19 02:56:41;;;;;;;7.51;4.24;;;;;;;18.31;59.91;100233.60;452231;116;924072;-85
2021/09/19 02:57:45;;;;;;;13.12;4.43;;;;;;;18.29;60.15;100233.06;450331;116;922678;-83
2021/09/19 02:58:49;;;;;;;6.98;4.35;;;;;;;18.28;60.35;100235.00;445960;118;923092;-83
2021/09/19 02:59:52;;;;;;;9.75;5.04;;;;;;;18.26;60.54;100237.19;449553;116;922538;-84
2021/09/19 03:00:56;;;;;;;6.58;4.24;;;;;;;18.25;60.76;100229.17;452208;114;930842;-84
2021/09/19 03:02:00;;;;;;;13.15;5.03;;;;;;;18.21;60.91;100230.83;442367;118;930534;-81
2021/09/19 03:03:04;;;;;;;9.49;4.66;;;;;;;18.19;61.09;100228.34;453112;114;930456;-82
2021/09/19 03:04:08;;;;;;;14.33;4.75;;;;;;;18.17;61.17;100230.56;455111;114;922523;-82
2021/09/19 03:05:11;;;;;;;9.46;4.84;;;;;;;18.17;61.31;100235.25;447761;118;922339;-82
2021/09/19 03:06:17;;;;;;;9.43;4.50;;;;;;;18.16;61.41;100241.86;440178;118;922601;-81
2021/09/19 03:07:21;;;;;;;8.38;4.96;;;;;;;18.15;61.42;100234.69;450573;114;922549;-83
2021/09/19 03:08:25;;;;;;;9.96;5.08;;;;;;;18.16;61.55;100234.42;463242;114;923075;-82
2021/09/19 03:09:28;;;;;;;7.82;4.26;;;;;;;18.17;61.64;100241.60;461844;112;930526;-82
2021/09/19 03:10:32;;;;;;;8.41;5.18;;;;;;;18.18;61.64;100234.98;462534;114;923049;-83
2021/09/19 03:11:36;;;;;;;6.59;4.82;;;;;;;18.19;61.79;100235.81;460559;114;922681;-83
2021/09/19 03:12:39;;;;;;;9.22;4.69;;;;;;;18.19;61.90;100233.86;461384;114;923254;-83
2021/09/19 03:13:45;;;;;;;6.62;5.06;;;;;;;18.20;61.96;100234.69;460453;114;922956;-83
2021/09/19 03:14:49;;;;;;;9.42;4.92;;;;;;;18.19;62.04;100236.62;461347;113;922731;-84
2021/09/19 03:15:52;;;;;;;5.84;4.32;;;;;;;18.20;62.08;100235.52;462471;112;923042;-84
2021/09/19 03:16:57;;;;;;;10.44;4.88;;;;;;;18.18;62.13;100239.67;460290;112;923130;-84
2021/09/19 03:18:00;;;;;;;8.73;4.52;;;;;;;18.17;62.23;100235.25;454418;115;923651;-83
2021/09/19 03:19:04;;;;;;;8.51;5.17;;;;;;;18.17;62.33;100232.49;446855;115;922549;-83
2021/09/19 03:20:11;;;;;;;9.07;4.94;;;;;;;18.17;62.50;100232.49;458936;114;930576;-83
2021/09/19 03:21:15;;;;;;;8.89;4.91;;;;;;;18.16;62.57;100230.83;460264;113;922534;-84
2021/09/19 03:22:19;;;;;;;8.88;4.97;;;;;;;18.15;62.62;100234.69;458725;114;922796;-84
2021/09/19 03:23:22;;;;;;;10.70;5.60;;;;;;;18.14;62.62;100224.77;460468;112;930987;-83
2021/09/19 03:24:26;;;;;;;7.64;4.67;;;;;;;18.13;62.69;100225.87;462860;113;930611;-83
2021/09/19 03:25:29;;;;;;;11.03;5.09;;;;;;;18.13;62.75;100223.94;462951;114;922706;-83
2021/09/19 03:26:33;;;;;;;12.38;5.01;;;;;;;18.14;62.75;100233.05;458109;114;930467;-84
2021/09/19 03:27:37;;;;;;;9.04;4.17;;;;;;;18.14;62.79;100228.33;461457;114;922577;-83
2021/09/19 03:28:42;;;;;;;7.35;4.29;;;;;;;18.13;62.82;100234.98;462865;113;930382;-84
2021/09/19 03:29:45;;;;;;;6.44;4.60;;;;;;;18.13;62.85;100215.66;462184;112;922385;-83
2021/09/19 03:30:49;;;;;;;10.24;5.24;;;;;;;18.14;62.86;100219.25;464229;113;930220;-82
2021/09/19 03:31:53;;;;;;;6.60;5.02;;;;;;;18.15;62.87;100223.64;458941;115;922612;-83
2021/09/19 03:32:56;;;;;;;7.92;4.91;;;;;;;18.16;62.85;100220.63;459547;114;922481;-83
2021/09/19 03:34:00;;;;;;;7.30;4.37;;;;;;;18.18;62.89;100228.64;458090;114;922655;-84
2021/09/19 03:35:04;;;;;;;8.52;5.34;;;;;;;18.17;62.93;100230.56;455343;115;922877;-84
2021/09/19 03:36:08;;;;;;;7.41;5.21;;;;;;;18.18;62.98;100228.64;455327;114;922885;-83
2021/09/19 03:37:11;;;;;;;12.36;5.41;;;;;;;18.18;63.01;100228.64;463739;114;930457;-83
2021/09/19 03:38:15;;;;;;;7.31;4.12;;;;;;;18.19;62.98;100228.34;459582;114;922649;-83
2021/09/19 03:39:18;;;;;;;10.56;4.72;;;;;;;18.18;63.08;100240.50;461014;112;922610;-83
2021/09/19 03:40:22;;;;;;;9.26;4.89;;;;;;;18.18;63.10;100234.16;461008;113;922893;-84
2021/09/19 03:41:26;;;;;;;11.42;4.79;;;;;;;18.18;63.11;100228.64;459953;113;922961;-83
2021/09/19 03:42:29;;;;;;;8.83;5.58;;;;;;;18.18;63.13;100232.22;463659;114;923076;-83
2021/09/19 03:43:33;;;;;;;7.56;5.09;;;;;;;18.19;63.04;100244.09;454639;115;922675;-83
2021/09/19 03:44:36;;;;;;;8.86;4.83;;;;;;;18.19;63.00;100236.62;454732;113;923065;-84
2021/09/19 03:45:40;;;;;;;8.66;5.17;;;;;;;18.20;62.95;100243.80;462943;114;930620;-84
2021/09/19 03:46:44;;;;;;;9.41;5.25;;;;;;;18.20;62.98;100237.45;458941;114;922528;-83
2021/09/19 03:47:47;;;;;;;9.17;6.08;;;;;;;18.20;62.92;100237.45;460386;113;922525;-83
2021/09/19 03:48:51;;;;;;;11.62;6.55;;;;;;;18.19;62.91;100233.86;463541;114;922742;-83
2021/09/19 03:49:54;;;;;;;7.74;6.70;;;;;;;18.19;62.90;100233.86;460948;114;922729;-81
2021/09/19 03:51:01;;;;;;;11.96;7.38;;;;;;;18.20;62.94;100231.93;460226;113;930617;-83
2021/09/19 03:52:05;;;;;;;12.24;7.39;;;;;;;18.21;62.91;100230.83;459684;114;922321;-81
2021/09/19 03:53:09;;;;;;;17.45;6.62;;;;;;;18.24;62.85;100241.34;462394;114;922408;-83
2021/09/19 03:54:13;;;;;;;6.78;5.05;;;;;;;18.25;62.76;100231.94;458698;114;930112;-82
2021/09/19 03:55:16;;;;;;;8.39;5.53;;;;;;;18.26;62.76;100233.59;461084;113;922396;-83
2021/09/19 03:56:21;;;;;;;6.66;5.63;;;;;;;18.27;62.83;100235.27;461424;114;923108;-85
2021/09/19 03:57:25;;;;;;;12.74;5.21;;;;;;;18.28;62.90;100234.16;461999;114;922661;-84
2021/09/19 03:58:28;;;;;;;9.91;5.55;;;;;;;18.28;62.92;100226.72;463147;113;930705;-84
2021/09/19 03:59:32;;;;;;;7.31;4.82;;;;;;;18.30;62.90;100232.77;462071;114;930390;-85
2021/09/19 04:00:37;;;;;;;10.26;5.53;;;;;;;18.32;62.93;100227.81;460297;113;930485;-84
2021/09/19 04:01:42;;;;;;;6.90;5.19;;;;;;;18.33;62.92;100225.89;462562;113;922956;-84
2021/09/19 04:02:46;;;;;;;9.93;5.29;;;;;;;18.34;62.96;100233.07;461131;112;922557;-86
2021/09/19 04:03:50;;;;;;;12.59;5.00;;;;;;;18.33;63.09;100229.48;458538;114;930566;-84
2021/09/19 04:04:53;;;;;;;9.86;4.69;;;;;;;18.32;63.29;100230.58;459448;114;930554;-83
2021/09/19 04:05:57;;;;;;;8.54;4.94;;;;;;;18.29;63.38;100228.38;461441;113;930548;-84
2021/09/19 04:07:00;;;;;;;7.75;4.74;;;;;;;18.28;63.64;100235.00;460340;114;922624;-84
2021/09/19 04:08:05;;;;;;;12.61;5.24;;;;;;;18.27;63.81;100229.74;462677;114;923054;-84
2021/09/19 04:09:09;;;;;;;12.02;5.94;;;;;;;18.25;64.02;100232.77;460727;113;923020;-84
2021/09/19 04:10:13;;;;;;;10.91;4.86;;;;;;;18.26;64.20;100241.88;462197;113;923085;-84
2021/09/19 04:11:16;;;;;;;12.59;5.47;;;;;;;18.27;64.35;100240.78;460783;113;922581;-84
2021/09/19 04:12:20;;;;;;;10.09;5.19;;;;;;;18.26;64.31;100234.43;461547;112;930514;-84
2021/09/19 04:13:23;;;;;;;14.62;5.89;;;;;;;18.27;64.49;100236.09;462132;112;923125;-84
2021/09/19 04:14:27;;;;;;;8.23;5.70;;;;;;;18.28;64.65;100236.92;461078;112;922642;-84
2021/09/19 04:15:30;;;;;;;7.22;4.87;;;;;;;18.27;64.80;100229.74;461000;113;930502;-85
2021/09/19 04:16:34;;;;;;;12.08;6.08;;;;;;;18.26;64.88;100233.59;461486;112;930598;-84
2021/09/19 04:17:38;;;;;;;7.97;5.81;;;;;;;18.23;64.91;100234.16;461393;112;922616;-83
2021/09/19 04:18:42;;;;;;;8.76;5.44;;;;;;;18.21;65.00;100233.59;462349;114;923837;-85
2021/09/19 04:19:45;;;;;;;7.15;5.59;;;;;;;18.19;65.14;100230.30;461468;112;922589;-82
2021/09/19 04:20:50;;;;;;;9.05;6.22;;;;;;;18.16;65.28;100228.90;458433;114;922392;-83
2021/09/19 04:21:53;;;;;;;11.03;6.62;;;;;;;18.16;65.47;100239.11;460606;114;930900;-84
2021/09/19 04:22:58;;;;;;;8.51;6.44;;;;;;;18.16;65.63;100239.11;461737;114;930352;-86
2021/09/19 04:24:01;;;;;;;9.17;6.50;;;;;;;18.19;65.78;100230.30;459274;114;923908;-83
2021/09/19 04:25:06;;;;;;;9.16;6.81;;;;;;;18.20;65.89;100237.45;460692;113;923307;-83
2021/09/19 04:26:10;;;;;;;9.71;6.97;;;;;;;18.20;66.00;100231.93;462524;114;930614;-85
2021/09/19 04:27:14;;;;;;;11.14;6.67;;;;;;;18.21;66.06;100236.35;462474;113;922509;-84
2021/09/19 04:28:17;;;;;;;11.43;6.64;;;;;;;18.23;66.14;100239.68;461990;114;922716;-84
2021/09/19 04:29:21;;;;;;;10.13;6.87;;;;;;;18.24;66.18;100235.83;461053;112;922542;-81
2021/09/19 04:30:26;;;;;;;12.12;7.96;;;;;;;18.24;66.30;100231.14;460098;113;930501;-82
2021/09/19 04:31:30;;;;;;;13.55;9.28;;;;;;;18.25;66.34;100226.41;461853;114;922605;-83
2021/09/19 04:32:36;;;;;;;12.80;9.86;;;;;;;18.26;66.36;100239.95;461511;114;922387;-84
2021/09/19 04:33:40;;;;;;;15.93;8.82;;;;;;;18.27;66.35;100230.57;459188;114;922683;-83
2021/09/19 04:34:43;;;;;;;12.98;7.48;;;;;;;18.28;66.34;100225.88;460684;114;922528;-83
2021/09/19 04:35:46;;;;;;;15.61;7.79;;;;;;;18.28;66.41;100225.88;460857;114;922974;-82
2021/09/19 04:36:51;;;;;;;11.19;6.68;;;;;;;18.29;66.42;100235.83;461191;114;922996;-84
2021/09/19 04:37:54;;;;;;;12.42;7.24;;;;;;;18.28;66.52;100228.64;458665;114;922486;-83
2021/09/19 04:38:58;;;;;;;9.86;6.47;;;;;;;18.28;66.61;100235.00;462447;114;922456;-83
2021/09/19 04:40:03;;;;;;;16.72;7.74;;;;;;;18.26;66.71;100233.59;460667;113;930403;-82
2021/09/19 04:41:07;;;;;;;11.33;6.42;;;;;;;18.26;66.76;100233.59;463606;114;922390;-82
2021/09/19 04:42:10;;;;;;;14.61;7.53;;;;;;;18.26;66.85;100236.36;464247;114;922128;-81
2021/09/19 04:43:14;;;;;;;11.05;6.73;;;;;;;18.26;67.02;100236.36;462595;114;930080;-82
2021/09/19 04:44:17;;;;;;;12.45;6.96;;;;;;;18.27;67.11;100232.50;461737;114;930522;-84
2021/09/19 04:45:21;;;;;;;17.81;6.96;;;;;;;18.26;67.17;100231.67;460920;112;930058;-83
2021/09/19 04:46:25;;;;;;;11.35;7.66;;;;;;;18.25;67.21;100224.48;453277;115;922696;-84
2021/09/19 04:47:28;;;;;;;9.79;6.44;;;;;;;18.27;67.31;100235.27;453191;114;923347;-83
2021/09/19 04:48:31;;;;;;;13.06;7.33;;;;;;;18.28;67.24;100226.72;459804;113;930503;-84
2021/09/19 04:49:35;;;;;;;10.89;6.68;;;;;;;18.30;67.26;100235.53;460403;114;922543;-82
2021/09/19 04:50:39;;;;;;;13.16;6.52;;;;;;;18.31;67.21;100228.91;460944;114;922916;-83
2021/09/19 04:51:42;;;;;;;10.34;6.03;;;;;;;18.31;67.23;100228.91;460396;113;922930;-83
2021/09/19 04:52:46;;;;;;;11.03;7.08;;;;;;;18.32;67.15;100236.09;461686;114;930234;-83
2021/09/19 04:53:49;;;;;;;11.22;6.95;;;;;;;18.31;67.12;100220.63;454379;115;925423;-83